56XS weather

G H Hart Nr 2 Heliport
Stafford, Texas, United States

Public forecast

Using degrees Fahrenheit for public forecast. Weather courtesy of forecast.io.

METAR (pilot weather report)

Closest report is Sugar Land Regional Airport, 5.5 nm (10.2 km) WSW. Retrieved 2019/09/23 09:53 UTC (1 hour ago):

KSGR 230953Z AUTO 00000KT 10SM FEW018 25/25 A2999 RMK AO2 SLP156 T02500250 $

TAF (pilot weather forecast)

Closest forecast is Sugar Land Regional Airport, 5.5 nm (10.2 km) WSW. Retrieved 2019/09/23 06:22 UTC (5 hours ago):

TAF KSGR 230520Z 2306/2406 13005KT P6SM FEW015 SCT250 FM231600 16006KT P6SM VCSH SCT020 BKN035 TEMPO 2316/2320 TSRA BKN030CB FM232100 15008KT P6SM VCSH SCT030 BKN250 FM240100 14004KT P6SM SCT020 SCT250